Burnham, Illinois
Current Conditions -  °F | °C
As of 7:45 AM on Friday 31 Oct 2014 (Local Time) from KGYY Reporting Station
Broken Clouds Broken Clouds  
Wind Chill: -2°   Ceiling: 2700
Heat Index:   Visibility: 10mi
Dew Point: -1°   Wind: 25mph
Humidity: 70%   Direction: 300°WNW
Pressure: 30.08"   Gusts: 39mph
Location:  41.6563°N, 87.5444°W
Report Text: KGYY 311245Z 30022G34KT 10SM BKN027 04/M01 A3008
Loading
Personal Weather Stations






























Interactive Weather Map
Tropical Storm Tracking
New forecast layout! Learn more

10-Day Weather Forecast

Advertisements
Track Severe Weather on mobile